Time;durP1;ratioP1;P1;durP2;ratioP2;P2;SDS_P1;SDS_P2;PMS_P1;PMS_P2;Temp;Humidity;BMP_temperature;BMP_pressure;BME280_temperature;BME280_humidity;BME280_pressure;Samples;Min_cycle;Max_cycle;Signal;HPM_P1;HPM_P2
2022/09/25 00:01:10;;;;;;;0.70;0.70;;;;;;;5.75;100.00;97302.03;4917339;29;20054;-86
2022/09/25 00:03:38;;;;;;;0.68;0.68;;;;;;;5.75;100.00;97301.22;4916315;29;20135;-87
2022/09/25 00:06:12;;;;;;;0.70;0.70;;;;;;;5.74;100.00;97297.72;4917554;29;20048;-87
2022/09/25 00:08:40;;;;;;;0.70;0.70;;;;;;;5.76;100.00;97305.50;4917509;29;20059;-86
2022/09/25 00:11:09;;;;;;;0.70;0.70;;;;;;;5.75;100.00;97311.94;4916996;29;20062;-86
2022/09/25 00:13:37;;;;;;;0.70;0.70;;;;;;;5.75;100.00;97306.56;4900357;29;20095;-86
2022/09/25 00:16:04;;;;;;;0.70;0.70;;;;;;;5.78;100.00;97306.06;4916444;29;20052;-86
2022/09/25 00:21:16;;;;;;;0.70;0.70;;;;;;;5.76;100.00;97310.84;4917084;29;20076;-85
2022/09/25 00:23:44;;;;;;;0.70;0.70;;;;;;;5.75;100.00;97303.91;4900994;29;20111;-85
2022/09/25 00:26:13;;;;;;;0.80;0.80;;;;;;;5.78;100.00;97312.22;4913922;29;20371;-85
2022/09/25 00:28:41;;;;;;;0.70;0.70;;;;;;;5.75;100.00;97310.06;4904001;29;20072;-86
2022/09/25 00:31:09;;;;;;;0.70;0.70;;;;;;;5.76;100.00;97319.69;4886071;29;20132;-86
2022/09/25 00:33:36;;;;;;;0.70;0.70;;;;;;;5.75;100.00;97312.72;4905716;29;20104;-86
2022/09/25 00:36:08;;;;;;;0.70;0.70;;;;;;;5.79;100.00;97315.69;4889222;29;20055;-85
2022/09/25 00:38:37;;;;;;;0.70;0.70;;;;;;;5.81;100.00;97318.94;4893862;29;20060;-85
2022/09/25 00:41:05;;;;;;;0.70;0.70;;;;;;;5.80;100.00;97309.28;4897973;29;20104;-85
2022/09/25 00:43:33;;;;;;;0.70;0.70;;;;;;;5.80;100.00;97317.31;4898047;29;20151;-85
2022/09/25 00:46:02;;;;;;;0.70;0.70;;;;;;;5.80;100.00;97320.00;4910525;29;20547;-86
2022/09/25 00:48:29;;;;;;;0.70;0.70;;;;;;;5.77;100.00;97320.50;4900003;29;20066;-86
2022/09/25 00:50:57;;;;;;;0.60;0.60;;;;;;;5.76;100.00;97317.00;4916412;29;20052;-84
2022/09/25 00:53:31;;;;;;;0.70;0.70;;;;;;;5.73;100.00;97314.84;4899386;29;20052;-85
2022/09/25 00:55:59;;;;;;;0.70;0.70;;;;;;;5.80;100.00;97315.44;4899531;29;20052;-85
2022/09/25 00:58:27;;;;;;;0.70;0.70;;;;;;;5.83;100.00;97319.50;4899714;29;20052;-86
2022/09/25 01:00:54;;;;;;;0.70;0.70;;;;;;;5.81;100.00;97316.25;4916586;29;20083;-86
2022/09/25 01:03:21;;;;;;;0.70;0.70;;;;;;;5.82;100.00;97312.50;4916708;29;20094;-86
2022/09/25 01:05:48;;;;;;;0.70;0.70;;;;;;;5.88;100.00;97316.84;4916121;29;20051;-86
2022/09/25 01:08:19;;;;;;;0.70;0.70;;;;;;;5.88;100.00;97311.50;4916094;29;20056;-86
2022/09/25 01:10:46;;;;;;;0.60;0.60;;;;;;;5.90;100.00;97316.56;4899599;29;20052;-86
2022/09/25 01:13:13;;;;;;;0.70;0.70;;;;;;;5.91;100.00;97327.03;4916435;29;20508;-85
2022/09/25 01:15:48;;;;;;;0.70;0.70;;;;;;;5.93;100.00;97319.56;4916603;29;20143;-86
2022/09/25 01:18:27;;;;;;;0.70;0.70;;;;;;;6.00;100.00;97319.38;4898923;29;20131;-86
2022/09/25 01:21:05;;;;;;;0.70;0.70;;;;;;;5.98;100.00;97322.31;4915847;29;20070;-84
2022/09/25 01:23:56;;;;;;;0.70;0.70;;;;;;;5.97;100.00;97326.03;4916110;29;20052;-85
2022/09/25 01:26:30;;;;;;;0.60;0.60;;;;;;;5.98;100.00;97327.69;4924973;29;20064;-85
2022/09/25 01:29:05;;;;;;;0.70;0.70;;;;;;;6.00;100.00;97333.59;4917910;29;20064;-87
2022/09/25 01:31:53;;;;;;;0.60;0.60;;;;;;;5.99;100.00;97333.84;4916103;29;20092;-86
2022/09/25 01:34:25;;;;;;;0.70;0.70;;;;;;;5.99;100.00;97331.16;4899359;29;20056;-85
2022/09/25 01:36:58;;;;;;;0.70;0.70;;;;;;;6.03;100.00;97333.06;4899177;29;20082;-84
2022/09/25 01:39:31;;;;;;;0.60;0.60;;;;;;;6.00;100.00;97328.22;4899377;29;20056;-86
2022/09/25 01:42:12;;;;;;;0.70;0.70;;;;;;;6.04;100.00;97339.22;4885289;29;20068;-85
2022/09/25 01:44:45;;;;;;;0.70;0.70;;;;;;;6.03;100.00;97335.75;4918083;29;20468;-85
2022/09/25 01:47:21;;;;;;;0.70;0.70;;;;;;;6.07;100.00;97346.75;4902264;29;20243;-85
2022/09/25 01:49:52;;;;;;;0.70;0.70;;;;;;;6.06;100.00;97345.94;4899565;29;20127;-85
2022/09/25 01:52:24;;;;;;;0.60;0.60;;;;;;;6.05;100.00;97338.16;4883547;29;20056;-84
2022/09/25 01:54:54;;;;;;;0.70;0.70;;;;;;;6.10;100.00;97345.44;4915525;29;20048;-85
2022/09/25 01:57:25;;;;;;;0.60;0.60;;;;;;;6.12;100.00;97338.75;4915551;29;20059;-85
2022/09/25 02:00:08;;;;;;;0.60;0.60;;;;;;;6.12;100.00;97344.09;4898662;29;20462;-84
2022/09/25 02:03:07;;;;;;;0.63;0.63;;;;;;;6.07;100.00;97339.50;4915662;29;20147;-86
2022/09/25 02:05:36;;;;;;;;;;;;;;;6.06;100.00;97355.84;4882215;29;20052;-85
2022/09/25 02:08:08;;;;;;;0.70;0.70;;;;;;;6.03;100.00;97353.69;4915527;29;19931;-85
2022/09/25 02:10:48;;;;;;;0.70;0.70;;;;;;;6.03;100.00;97351.81;4898424;29;20059;-86
2022/09/25 02:13:19;;;;;;;0.70;0.70;;;;;;;6.03;100.00;97351.81;4898484;29;20423;-85
2022/09/25 02:15:55;;;;;;;0.70;0.70;;;;;;;6.05;100.00;97348.88;4915708;29;20471;-85
2022/09/25 02:21:21;;;;;;;0.70;0.70;;;;;;;6.08;100.00;97354.53;4915266;29;20048;-85
2022/09/25 02:23:52;;;;;;;0.70;0.70;;;;;;;6.04;100.00;97353.41;4915001;29;20111;-85
2022/09/25 02:26:26;;;;;;;0.70;0.70;;;;;;;6.03;100.00;97361.72;4898358;29;20421;-85
2022/09/25 02:28:53;;;;;;;;;;;;;;;5.99;100.00;97358.72;4915436;29;20056;-85
2022/09/25 02:31:27;;;;;;;0.60;0.60;;;;;;;6.02;100.00;97354.75;4915325;29;19927;-85
2022/09/25 02:33:55;;;;;;;0.70;0.70;;;;;;;6.02;100.00;97352.88;4882654;29;20150;-85
2022/09/25 02:36:22;;;;;;;0.70;0.70;;;;;;;6.07;100.00;97358.25;4898574;29;20131;-85
2022/09/25 02:38:51;;;;;;;0.70;0.70;;;;;;;6.09;100.00;97352.66;4917665;29;20059;-84
2022/09/25 02:41:43;;;;;;;0.70;0.70;;;;;;;6.08;100.00;97359.91;4918856;29;20104;-86
2022/09/25 02:44:16;;;;;;;0.70;0.70;;;;;;;6.05;100.00;97357.72;4918553;29;20096;-85
2022/09/25 02:47:11;;;;;;;0.70;0.70;;;;;;;6.11;100.00;97360.44;4918653;29;20104;-85
2022/09/25 02:49:53;;;;;;;0.70;0.70;;;;;;;6.11;100.00;97357.78;4902645;29;20052;-85
2022/09/25 02:52:35;;;;;;;0.70;0.70;;;;;;;6.10;100.00;97361.50;4919167;29;20062;-85
2022/09/25 02:55:06;;;;;;;0.68;0.68;;;;;;;6.11;100.00;97363.94;4901704;29;20507;-85
2022/09/25 02:57:37;;;;;;;0.60;0.60;;;;;;;6.08;100.00;97372.47;4901849;29;20088;-84
2022/09/25 03:00:06;;;;;;;0.60;0.60;;;;;;;6.05;100.00;97371.13;4916720;29;20052;-85
2022/09/25 03:02:35;;;;;;;0.60;0.60;;;;;;;6.06;100.00;97371.91;4918334;29;20067;-86
2022/09/25 03:05:03;;;;;;;0.60;0.60;;;;;;;6.05;100.00;97376.47;4918308;29;20423;-85
2022/09/25 03:08:36;;;;;;;0.65;0.65;;;;;;;6.04;100.00;97379.41;4886204;29;20063;-85
2022/09/25 03:10:21;;;;;;;0.68;0.68;;;;;;;6.03;100.00;97378.59;4917208;29;20064;-85
2022/09/25 03:12:48;;;;;;;0.70;0.70;;;;;;;6.03;100.00;97381.28;4901884;29;20087;-85
2022/09/25 03:15:15;;;;;;;0.60;0.60;;;;;;;6.06;100.00;97383.44;4917993;29;20063;-85
2022/09/25 03:17:42;;;;;;;0.68;0.68;;;;;;;6.10;100.00;97377.56;4901438;29;20411;-85
2022/09/25 03:20:09;;;;;;;0.65;0.65;;;;;;;6.11;100.00;97395.28;4900901;29;20071;-84
2022/09/25 03:22:36;;;;;;;0.60;0.60;;;;;;;6.10;100.00;97388.28;4901631;29;20451;-84
2022/09/25 03:25:09;;;;;;;0.70;0.70;;;;;;;6.11;100.00;97389.91;4918301;29;20059;-84
2022/09/25 03:27:36;;;;;;;0.70;0.70;;;;;;;6.10;100.00;97388.28;4900315;29;20055;-86
2022/09/25 03:30:04;;;;;;;0.70;0.70;;;;;;;6.06;100.00;97404.88;4917646;29;20048;-85
2022/09/25 03:32:31;;;;;;;0.60;0.60;;;;;;;6.11;100.00;97403.31;4920799;29;20048;-85
2022/09/25 03:34:58;;;;;;;0.70;0.70;;;;;;;6.14;100.00;97394.75;4931845;29;20059;-85
2022/09/25 03:37:25;;;;;;;0.70;0.70;;;;;;;6.10;100.00;97401.66;4917179;29;20051;-84
2022/09/25 03:39:58;;;;;;;0.60;0.60;;;;;;;6.12;100.00;97407.59;4916266;29;20077;-84
2022/09/25 03:42:26;;;;;;;0.70;0.70;;;;;;;6.11;100.00;97408.66;4916918;29;20048;-85
2022/09/25 03:44:53;;;;;;;0.60;0.60;;;;;;;6.05;100.00;97405.09;4916014;29;20139;-84
2022/09/25 03:47:20;;;;;;;0.63;0.63;;;;;;;6.06;100.00;97410.22;4883977;29;20052;-83
2022/09/25 03:49:47;;;;;;;0.77;0.77;;;;;;;6.10;100.00;97399.78;4916937;29;20111;-84
2022/09/25 03:52:14;;;;;;;0.70;0.70;;;;;;;6.13;100.00;97411.88;4917520;29;20051;-86
2022/09/25 03:54:41;;;;;;;0.70;0.70;;;;;;;6.17;100.00;97410.31;4886030;29;20076;-79
2022/09/25 03:57:13;;;;;;;0.70;0.70;;;;;;;6.15;100.00;97407.06;4917415;29;20052;-84
2022/09/25 03:59:40;;;;;;;0.70;0.70;;;;;;;6.12;100.00;97416.44;4917815;29;20123;-85
2022/09/25 04:02:07;;;;;;;0.60;0.60;;;;;;;6.15;100.00;97412.44;4900569;29;20071;-85
2022/09/25 04:04:36;;;;;;;0.60;0.60;;;;;;;6.22;100.00;97418.38;4917681;29;20260;-86
2022/09/25 04:07:05;;;;;;;0.60;0.60;;;;;;;6.27;100.00;97419.22;4916820;29;20064;-85
2022/09/25 04:09:32;;;;;;;0.60;0.60;;;;;;;6.32;100.00;97415.00;4916158;29;20056;-84
2022/09/25 04:11:59;;;;;;;0.70;0.70;;;;;;;6.31;100.00;97429.47;4917057;29;20146;-84
2022/09/25 04:14:26;;;;;;;0.70;0.70;;;;;;;6.28;100.00;97428.91;4917000;29;20048;-84
2022/09/25 04:16:53;;;;;;;0.70;0.70;;;;;;;6.24;100.00;97426.97;4917280;29;20055;-85
2022/09/25 04:19:20;;;;;;;0.70;0.70;;;;;;;6.21;100.00;97433.66;4916941;29;20103;-83
2022/09/25 04:21:47;;;;;;;0.70;0.70;;;;;;;6.20;100.00;97434.75;4916821;29;20511;-85
2022/09/25 04:27:00;;;;;;;0.70;0.70;;;;;;;6.18;100.00;97436.03;4916821;29;20048;-84
2022/09/25 04:29:27;;;;;;;0.60;0.60;;;;;;;6.19;100.00;97448.38;4917134;29;20431;-85
2022/09/25 04:34:39;;;;;;;0.60;0.60;;;;;;;6.07;100.00;97449.31;4899894;29;20087;-85
2022/09/25 04:37:06;;;;;;;0.70;0.70;;;;;;;6.04;100.00;97452.50;4916722;29;20059;-84
2022/09/25 04:39:33;;;;;;;0.70;0.70;;;;;;;6.01;100.00;97449.53;4916882;29;20067;-84
2022/09/25 04:42:00;;;;;;;0.70;0.70;;;;;;;5.94;100.00;97455.09;4916790;29;20062;-84
2022/09/25 04:44:27;;;;;;;0.70;0.70;;;;;;;5.92;100.00;97473.25;4916635;29;20091;-84
2022/09/25 04:46:54;;;;;;;0.70;0.70;;;;;;;5.90;100.00;97472.72;4916935;29;20056;-84
2022/09/25 04:49:21;;;;;;;0.70;0.70;;;;;;;5.88;100.00;97469.47;4900152;29;20471;-85
2022/09/25 04:51:48;;;;;;;0.70;0.70;;;;;;;5.86;100.00;97477.75;4916545;29;20086;-85
2022/09/25 04:54:16;;;;;;;0.60;0.60;;;;;;;5.86;100.00;97477.75;4916378;29;20055;-85
2022/09/25 04:56:43;;;;;;;0.70;0.70;;;;;;;5.84;100.00;97493.25;4916711;29;20052;-84
2022/09/25 04:59:10;;;;;;;0.70;0.70;;;;;;;5.85;100.00;97489.53;4916821;29;20079;-84
2022/09/25 05:01:37;;;;;;;0.70;0.70;;;;;;;5.84;100.00;97487.09;4916781;29;20071;-85
2022/09/25 05:04:05;;;;;;;0.70;0.70;;;;;;;5.89;100.00;97489.00;4899500;29;20055;-85
2022/09/25 05:06:34;;;;;;;0.60;0.60;;;;;;;5.89;100.00;97489.81;4916273;29;20055;-85
2022/09/25 05:09:02;;;;;;;0.60;0.60;;;;;;;5.88;100.00;97492.75;4916915;29;20048;-85
2022/09/25 05:11:29;;;;;;;0.65;0.65;;;;;;;5.83;100.00;97501.53;4916756;29;20052;-85
2022/09/25 05:14:00;;;;;;;0.60;0.60;;;;;;;5.82;100.00;97498.06;4916661;29;20079;-84
2022/09/25 05:16:29;;;;;;;0.60;0.60;;;;;;;5.84;100.00;97495.91;4916966;29;20063;-84
2022/09/25 05:19:00;;;;;;;0.70;0.70;;;;;;;5.85;100.00;97507.47;4901175;29;20076;-85
2022/09/25 05:21:29;;;;;;;0.70;0.70;;;;;;;5.92;100.00;97505.38;4916839;29;20067;-85
2022/09/25 05:23:59;;;;;;;0.60;0.60;;;;;;;5.94;100.00;97511.31;4916490;29;20052;-85
2022/09/25 05:26:28;;;;;;;0.70;0.70;;;;;;;6.03;100.00;97512.50;4916554;29;20176;-85
2022/09/25 05:28:59;;;;;;;0.70;0.70;;;;;;;6.06;100.00;97514.69;4916186;29;20048;-84
2022/09/25 05:31:26;;;;;;;0.70;0.70;;;;;;;6.10;100.00;97520.31;4868187;29;20397;-85
2022/09/25 05:33:53;;;;;;;0.70;0.70;;;;;;;6.12;100.00;97522.75;4853143;29;20147;-83
2022/09/25 05:36:21;;;;;;;0.70;0.70;;;;;;;6.14;100.00;97517.97;4916181;29;20059;-84
2022/09/25 05:38:48;;;;;;;0.60;0.60;;;;;;;6.09;100.00;97524.06;4921461;29;20048;-85
2022/09/25 05:41:15;;;;;;;0.70;0.70;;;;;;;6.06;100.00;97521.91;4925839;29;20059;-84
2022/09/25 05:43:46;;;;;;;0.70;0.70;;;;;;;6.08;100.00;97528.63;4901319;29;20534;-84
2022/09/25 05:46:14;;;;;;;0.70;0.70;;;;;;;6.13;100.00;97535.09;4915457;29;20060;-84
2022/09/25 05:48:42;;;;;;;0.70;0.70;;;;;;;6.12;100.00;97528.91;4915916;29;20060;-85
2022/09/25 05:51:18;;;;;;;0.61;0.61;;;;;;;6.17;100.00;97538.88;4859159;29;10000847;-84
2022/09/25 05:53:46;;;;;;;0.70;0.70;;;;;;;6.26;100.00;97537.38;4904560;29;20273;-84
2022/09/25 05:56:15;;;;;;;0.70;0.70;;;;;;;6.43;100.00;97548.00;4894959;29;20578;-84
2022/09/25 05:58:43;;;;;;;0.70;0.70;;;;;;;6.53;100.00;97541.91;4908402;29;20107;-85
2022/09/25 06:01:10;;;;;;;0.70;0.70;;;;;;;6.53;100.00;97536.56;4903589;29;20302;-84
2022/09/25 06:03:37;;;;;;;0.60;0.60;;;;;;;6.55;100.00;97540.59;4902111;29;20055;-84
2022/09/25 06:06:05;;;;;;;0.70;0.70;;;;;;;6.51;100.00;97547.56;4911663;29;20439;-83
2022/09/25 06:08:34;;;;;;;0.70;0.70;;;;;;;6.49;100.00;97550.47;4912179;29;20052;-83
2022/09/25 06:11:03;;;;;;;0.63;0.63;;;;;;;6.45;99.84;97554.72;4889715;29;20051;-83
2022/09/25 06:13:31;;;;;;;0.60;0.60;;;;;;;6.35;99.23;97551.94;4900774;29;20059;-84
2022/09/25 06:16:00;;;;;;;0.70;0.70;;;;;;;6.34;99.08;97552.19;4929402;29;20052;-84
2022/09/25 06:18:27;;;;;;;0.70;0.70;;;;;;;6.30;98.83;97554.56;4899129;29;20056;-85
2022/09/25 06:21:03;;;;;;;0.70;0.70;;;;;;;6.28;98.76;97554.03;4902241;29;20060;-85
2022/09/25 06:23:30;;;;;;;0.70;0.70;;;;;;;6.29;98.54;97563.66;4908141;29;20044;-85
2022/09/25 06:26:02;;;;;;;0.70;0.70;;;;;;;6.31;98.69;97561.56;4894836;29;20085;-85
2022/09/25 06:28:30;;;;;;;0.80;0.80;;;;;;;6.33;98.61;97570.16;4896342;29;20560;-85
2022/09/25 06:31:01;;;;;;;0.70;0.70;;;;;;;6.35;98.50;97562.66;4878697;29;20397;-87
2022/09/25 06:33:29;;;;;;;0.70;0.70;;;;;;;6.42;98.76;97570.50;4898869;29;20060;-85
2022/09/25 06:35:56;;;;;;;0.70;0.70;;;;;;;6.47;98.48;97571.34;4915215;29;20558;-86
2022/09/25 06:38:25;;;;;;;0.70;0.70;;;;;;;6.54;98.63;97581.09;4910340;29;20055;-89
2022/09/25 06:40:52;;;;;;;0.80;0.80;;;;;;;6.62;98.27;97580.63;4909474;29;20601;-87
2022/09/25 06:43:21;;;;;;;0.70;0.70;;;;;;;6.65;98.07;97580.09;4911316;29;20065;-88
2022/09/25 06:45:50;;;;;;;0.70;0.70;;;;;;;6.77;97.74;97585.31;4903730;29;20067;-85
2022/09/25 06:48:17;;;;;;;0.80;0.80;;;;;;;6.83;97.00;97590.44;4912344;29;20055;-86
2022/09/25 06:50:55;;;;;;;0.70;0.70;;;;;;;6.86;96.62;97592.66;4912425;29;20044;-87
2022/09/25 06:53:24;;;;;;;0.70;0.70;;;;;;;6.80;95.99;97596.34;4893254;29;20115;-87
2022/09/25 06:55:54;;;;;;;0.70;0.70;;;;;;;6.76;96.46;97592.56;4901795;29;20052;-86
2022/09/25 06:58:22;;;;;;;0.70;0.70;;;;;;;6.84;96.55;97599.34;4876735;29;20084;-84
2022/09/25 07:00:50;;;;;;;0.60;0.60;;;;;;;6.91;96.20;97597.22;4910760;29;20055;-86
2022/09/25 07:06:06;;;;;;;0.70;0.70;;;;;;;6.95;95.11;97607.19;4902402;29;20071;-86
2022/09/25 07:08:33;;;;;;;0.70;0.70;;;;;;;6.94;94.55;97604.78;4910595;29;20071;-85
2022/09/25 07:11:01;;;;;;;0.70;0.70;;;;;;;6.89;94.72;97618.94;4911043;29;20445;-84
2022/09/25 07:13:30;;;;;;;0.70;0.70;;;;;;;6.94;94.86;97607.47;4908101;29;20248;-84
2022/09/25 07:16:05;;;;;;;0.70;0.70;;;;;;;6.98;94.59;97618.47;4908958;29;20052;-84
2022/09/25 07:18:34;;;;;;;0.70;0.70;;;;;;;7.11;94.23;97624.22;4913936;29;20092;-85
2022/09/25 07:21:03;;;;;;;0.70;0.70;;;;;;;7.18;93.45;97631.25;4899506;29;20555;-85
2022/09/25 07:23:35;;;;;;;0.70;0.70;;;;;;;7.21;93.20;97631.53;4909383;29;20056;-85
2022/09/25 07:26:11;;;;;;;0.60;0.60;;;;;;;7.15;92.71;97637.94;4907597;29;20150;-84
2022/09/25 07:28:39;;;;;;;0.70;0.70;;;;;;;7.01;92.86;97648.28;4878900;29;20053;-89
2022/09/25 07:31:13;;;;;;;0.70;0.70;;;;;;;7.00;93.31;97643.19;4896690;29;20048;-85
2022/09/25 07:33:41;;;;;;;0.80;0.80;;;;;;;7.00;93.29;97641.31;4899628;29;20452;-84
2022/09/25 07:36:11;;;;;;;0.70;0.70;;;;;;;7.08;93.07;97651.56;4901651;29;20049;-86
2022/09/25 07:38:39;;;;;;;0.70;0.70;;;;;;;7.05;92.78;97644.03;4880226;29;20503;-86
2022/09/25 07:41:09;;;;;;;0.75;0.75;;;;;;;7.13;92.40;97656.16;4863134;29;20067;-83
2022/09/25 07:43:37;;;;;;;0.60;0.60;;;;;;;7.20;92.16;97648.72;4887074;29;20059;-84
2022/09/25 07:46:05;;;;;;;0.70;0.70;;;;;;;7.19;92.19;97659.69;4916787;29;20120;-83
2022/09/25 07:48:35;;;;;;;0.70;0.70;;;;;;;7.19;92.06;97657.00;4912771;29;20067;-84
2022/09/25 07:51:10;;;;;;;0.70;0.70;;;;;;;7.19;92.32;97668.59;4874344;29;20056;-84
2022/09/25 07:53:40;;;;;;;;;;;;;;;7.29;92.08;97659.78;4909821;29;20052;-84
2022/09/25 07:56:08;;;;;;;0.70;0.70;;;;;;;7.40;91.65;97663.38;4916101;29;19970;-82
2022/09/25 07:58:35;;;;;;;0.70;0.70;;;;;;;7.53;91.08;97668.31;4908377;29;20139;-82
2022/09/25 08:01:04;;;;;;;0.70;0.70;;;;;;;7.60;90.46;97669.72;4905286;29;20428;-83
2022/09/25 08:03:32;;;;;;;0.70;0.70;;;;;;;7.57;90.10;97680.13;4924920;29;20051;-85
2022/09/25 08:06:08;;;;;;;0.70;0.70;;;;;;;7.43;90.45;97678.97;4908908;29;20044;-83
2022/09/25 08:08:35;;;;;;;0.70;0.70;;;;;;;7.26;90.71;97679.88;4930748;29;20060;-83
2022/09/25 08:11:10;;;;;;;0.65;0.65;;;;;;;7.08;90.98;97685.63;4918926;29;20071;-84
2022/09/25 08:13:38;;;;;;;0.60;0.60;;;;;;;6.95;91.37;97679.63;4886157;29;20060;-86
2022/09/25 08:16:14;;;;;;;0.70;0.70;;;;;;;7.06;91.28;97698.50;4916903;29;20044;-86
2022/09/25 08:18:45;;;;;;;0.70;0.70;;;;;;;7.05;91.50;97699.56;4917902;29;20067;-82
2022/09/25 08:21:14;;;;;;;0.68;0.68;;;;;;;7.12;91.01;97705.53;4910530;29;20064;-85
2022/09/25 08:23:44;;;;;;;0.70;0.70;;;;;;;7.08;91.08;97707.09;4914261;29;20135;-83
2022/09/25 08:26:15;;;;;;;0.63;0.63;;;;;;;6.96;90.88;97709.91;4880914;29;20091;-82
2022/09/25 08:28:43;;;;;;;0.70;0.70;;;;;;;6.94;90.56;97717.44;4897032;29;20679;-82
2022/09/25 08:31:13;;;;;;;0.63;0.63;;;;;;;6.95;90.55;97719.03;4913281;29;20052;-82
2022/09/25 08:33:48;;;;;;;0.70;0.70;;;;;;;6.96;90.54;97723.34;4908264;29;20040;-83
2022/09/25 08:36:20;;;;;;;0.70;0.70;;;;;;;6.95;90.57;97730.56;4888793;29;20147;-81
2022/09/25 08:38:47;;;;;;;0.70;0.70;;;;;;;6.99;90.56;97730.91;4898839;29;20060;-83
2022/09/25 08:41:25;;;;;;;0.68;0.68;;;;;;;7.03;90.28;97723.16;4879624;29;20060;-82
2022/09/25 08:43:58;;;;;;;0.70;0.70;;;;;;;7.01;90.36;97734.13;4879971;29;20071;-84
2022/09/25 08:49:26;;;;;;;0.65;0.65;;;;;;;6.81;90.39;97752.66;4884572;29;20060;-84
2022/09/25 08:52:01;;;;;;;0.70;0.70;;;;;;;6.94;90.33;97749.63;4879712;29;20229;-84
2022/09/25 08:54:31;;;;;;;0.70;0.70;;;;;;;6.95;90.43;97754.72;4931336;29;20082;-83
2022/09/25 08:57:04;;;;;;;0.60;0.60;;;;;;;6.93;90.26;97756.84;4898536;29;20048;-81
2022/09/25 08:59:34;;;;;;;0.60;0.60;;;;;;;7.06;90.46;97766.34;4902693;29;20052;-81
2022/09/25 09:02:14;;;;;;;0.70;0.70;;;;;;;7.11;90.66;97768.28;4896868;29;20055;-80
2022/09/25 09:04:47;;;;;;;0.70;0.70;;;;;;;7.10;90.82;97772.06;4911752;29;20055;-83
2022/09/25 09:07:36;;;;;;;0.70;0.70;;;;;;;7.05;90.88;97774.69;4889532;29;20067;-82
2022/09/25 09:10:12;;;;;;;0.70;0.70;;;;;;;7.01;90.71;97781.59;4905663;29;20086;-82
2022/09/25 09:12:45;;;;;;;0.68;0.68;;;;;;;6.94;90.92;97792.53;4917891;29;20105;-82
2022/09/25 09:15:15;;;;;;;0.70;0.70;;;;;;;6.93;90.70;97783.66;4904412;29;20128;-82
2022/09/25 09:17:42;;;;;;;0.60;0.60;;;;;;;6.89;90.72;97795.97;4914840;29;20150;-82
2022/09/25 09:20:31;;;;;;;0.60;0.60;;;;;;;6.90;91.19;97789.53;4911953;29;20064;-82
2022/09/25 09:22:58;;;;;;;0.60;0.60;;;;;;;6.85;91.52;97805.56;4890592;29;20486;-83
2022/09/25 09:25:39;;;;;;;0.70;0.70;;;;;;;6.85;91.88;97802.88;4891140;29;20091;-82
2022/09/25 09:28:45;;;;;;;0.60;0.60;;;;;;;6.84;92.14;97803.16;4900970;29;20423;-82
2022/09/25 09:31:43;;;;;;;0.75;0.75;;;;;;;6.85;92.20;97805.56;4910895;29;20468;-82
2022/09/25 09:34:30;;;;;;;0.70;0.70;;;;;;;6.82;92.01;97815.97;4912813;29;20079;-84
2022/09/25 09:37:48;;;;;;;0.70;0.70;;;;;;;6.71;91.45;97820.41;4906568;29;20093;-84
2022/09/25 09:40:37;;;;;;;0.70;0.70;;;;;;;6.75;91.51;97815.34;4906008;29;20119;-82
2022/09/25 09:43:14;;;;;;;0.70;0.70;;;;;;;6.86;91.49;97825.97;4886940;29;20068;-83
2022/09/25 09:45:48;;;;;;;0.70;0.70;;;;;;;6.78;91.21;97807.59;4902458;29;20095;-80
2022/09/25 09:48:39;;;;;;;0.70;0.70;;;;;;;6.73;91.09;97816.41;4897417;29;20103;-82
2022/09/25 09:51:18;;;;;;;0.70;0.70;;;;;;;6.89;91.05;97833.50;4899053;29;20052;-80
2022/09/25 09:54:23;;;;;;;0.70;0.70;;;;;;;6.95;91.02;97835.19;4911342;29;20123;-80
2022/09/25 09:56:51;;;;;;;0.70;0.70;;;;;;;6.98;90.90;97838.44;4901579;29;20084;-83
2022/09/25 09:59:28;;;;;;;0.70;0.70;;;;;;;6.95;90.44;97834.38;4901566;29;20138;-83
2022/09/25 10:02:02;;;;;;;0.70;0.70;;;;;;;7.03;90.39;97841.19;4902124;29;20388;-82
2022/09/25 10:04:34;;;;;;;0.70;0.70;;;;;;;7.11;90.50;97846.91;4895543;29;20048;-83
2022/09/25 10:07:08;;;;;;;0.77;0.77;;;;;;;7.21;90.23;97840.03;4904172;29;20055;-83
2022/09/25 10:09:37;;;;;;;0.70;0.70;;;;;;;7.18;90.63;97837.88;4905654;29;20105;-83
2022/09/25 10:12:04;;;;;;;0.60;0.60;;;;;;;7.18;90.66;97837.88;4570975;29;10000063;-81
2022/09/25 10:14:37;;;;;;;0.70;0.70;;;;;;;7.12;90.70;97840.50;4927031;29;20300;-81
2022/09/25 10:17:10;;;;;;;0.70;0.70;;;;;;;7.15;90.76;97839.19;4917692;29;20052;-82
2022/09/25 10:19:54;;;;;;;0.70;0.70;;;;;;;7.11;90.70;97848.78;4907938;29;20048;-84
2022/09/25 10:22:27;;;;;;;0.70;0.70;;;;;;;7.10;90.59;97847.97;4873002;29;20065;-83
2022/09/25 10:25:02;;;;;;;0.70;0.70;;;;;;;7.08;90.49;97854.66;4900323;29;20128;-83
2022/09/25 10:27:45;;;;;;;0.68;0.68;;;;;;;7.10;90.18;97855.22;4892281;29;20053;-84
2022/09/25 10:30:19;;;;;;;0.70;0.70;;;;;;;6.99;89.97;97867.72;4898591;29;20060;-82
2022/09/25 10:32:56;;;;;;;0.70;0.70;;;;;;;7.02;90.50;97866.41;4906525;29;20060;-83
2022/09/25 10:35:55;;;;;;;0.70;0.70;;;;;;;6.99;90.70;97872.22;4897904;29;20052;-84
2022/09/25 10:38:22;;;;;;;0.60;0.60;;;;;;;6.96;90.98;97873.53;4891094;29;20132;-84
2022/09/25 10:41:08;;;;;;;0.60;0.60;;;;;;;7.04;90.38;97873.13;4927525;29;20629;-82
2022/09/25 10:43:49;;;;;;;0.70;0.70;;;;;;;7.02;90.11;97871.75;4913004;29;20163;-84
2022/09/25 10:50:09;;;;;;;0.60;0.60;;;;;;;7.04;90.18;97870.44;4905008;29;20108;-83
2022/09/25 10:52:49;;;;;;;0.70;0.70;;;;;;;7.05;90.70;97881.97;4883609;29;20535;-83
2022/09/25 10:55:29;;;;;;;0.70;0.70;;;;;;;7.12;91.09;97885.31;4902081;29;20055;-84
2022/09/25 10:58:20;;;;;;;0.70;0.70;;;;;;;7.25;90.70;97879.56;4892992;29;20115;-83
2022/09/25 11:00:49;;;;;;;0.70;0.70;;;;;;;7.27;90.48;97879.31;4894066;29;20421;-84
2022/09/25 11:03:21;;;;;;;0.70;0.70;;;;;;;7.32;90.34;97884.75;4911403;29;20281;-84
2022/09/25 11:06:04;;;;;;;0.70;0.70;;;;;;;7.36;89.87;97883.16;4906569;29;20449;-84
2022/09/25 11:08:37;;;;;;;0.70;0.70;;;;;;;7.37;89.43;97884.81;4899176;29;20448;-83
2022/09/25 11:11:08;;;;;;;0.70;0.70;;;;;;;7.41;88.83;97882.41;4919737;29;20427;-84
2022/09/25 11:13:44;;;;;;;0.70;0.70;;;;;;;7.38;88.77;97889.91;4912503;29;20056;-83
2022/09/25 11:16:11;;;;;;;0.70;0.70;;;;;;;7.38;88.00;97889.91;4902892;29;20078;-83
2022/09/25 11:18:41;;;;;;;0.70;0.70;;;;;;;7.43;87.97;97891.84;4910187;29;20571;-83
2022/09/25 11:21:24;;;;;;;0.70;0.70;;;;;;;7.62;87.81;97886.94;4899933;29;20074;-84
2022/09/25 11:24:24;;;;;;;0.70;0.70;;;;;;;7.68;87.08;97896.69;4910570;29;20052;-84
2022/09/25 11:27:21;;;;;;;0.60;0.60;;;;;;;7.65;87.38;97896.38;4900882;29;20060;-84
2022/09/25 11:30:17;;;;;;;0.70;0.70;;;;;;;7.62;87.15;97897.66;4902572;29;20060;-84
2022/09/25 11:33:07;;;;;;;0.70;0.70;;;;;;;7.48;86.91;97904.50;4917048;29;20060;-84
2022/09/25 11:35:35;;;;;;;0.60;0.60;;;;;;;7.48;87.38;97904.50;4917118;29;20567;-84
2022/09/25 11:41:10;;;;;;;0.60;0.60;;;;;;;7.47;87.44;97908.25;4916946;29;20508;-83
2022/09/25 11:41:21;;;;;;;0.63;0.63;;;;;;;7.46;87.44;97912.00;4916948;29;20064;-84
2022/09/25 11:44:26;;;;;;;0.60;0.60;;;;;;;7.37;86.76;97914.31;4901079;29;20064;-84
2022/09/25 11:47:14;;;;;;;0.60;0.60;;;;;;;7.26;87.06;97917.94;4917286;29;20081;-83
2022/09/25 11:49:42;;;;;;;0.65;0.65;;;;;;;7.21;87.34;97921.34;4910607;29;20058;-84
2022/09/25 11:52:27;;;;;;;0.60;0.60;;;;;;;7.26;87.78;97920.63;4918112;29;20460;-84
2022/09/25 11:55:30;;;;;;;0.60;0.60;;;;;;;7.30;87.90;97925.25;4883697;29;20052;-84
2022/09/25 11:58:27;;;;;;;0.60;0.60;;;;;;;7.29;87.80;97929.00;4916249;29;20052;-83
2022/09/25 12:01:09;;;;;;;0.60;0.60;;;;;;;7.29;87.39;97925.47;4916727;29;20052;-83
2022/09/25 12:03:51;;;;;;;0.60;0.60;;;;;;;7.22;87.46;97928.34;4916043;29;20616;-84
2022/09/25 12:06:27;;;;;;;0.70;0.70;;;;;;;7.25;87.31;97922.50;4922827;29;20526;-83
2022/09/25 12:09:19;;;;;;;0.70;0.70;;;;;;;7.35;87.68;97930.66;4905789;29;20055;-84
2022/09/25 12:11:58;;;;;;;0.70;0.70;;;;;;;7.42;87.57;97924.28;4922673;29;20058;-84
2022/09/25 12:14:47;;;;;;;0.70;0.70;;;;;;;7.52;87.32;97922.56;4935905;29;20056;-82
2022/09/25 12:17:28;;;;;;;0.70;0.70;;;;;;;7.47;86.76;97921.66;4920692;29;20078;-82
2022/09/25 12:20:25;;;;;;;0.70;0.70;;;;;;;7.63;nan;97928.03;4920764;29;20056;-82
2022/09/25 12:23:28;;;;;;;0.70;0.70;;;;;;;7.66;85.26;97928.34;4827119;29;20057;-83
2022/09/25 12:26:08;;;;;;;0.60;0.60;;;;;;;7.64;85.21;97933.13;4842370;29;20505;-81
2022/09/25 12:28:51;;;;;;;0.60;0.60;;;;;;;7.67;85.16;97942.56;4842828;29;20065;-82